Time;durP1;ratioP1;P1;durP2;ratioP2;P2;SDS_P1;SDS_P2;PMS_P1;PMS_P2;Temp;Humidity;BMP_temperature;BMP_pressure;BME280_temperature;BME280_humidity;BME280_pressure;Samples;Min_cycle;Max_cycle;Signal;HPM_P1;HPM_P2
2024/03/23 00:02:43;;;;;;;26.88;6.40;;;;;;;6.37;100.00;100840.75;10266442;28;20056;-74
2024/03/23 00:07:39;;;;;;;26.65;5.97;;;;;;;6.45;100.00;100826.56;10263514;28;20087;-74
2024/03/23 00:12:36;;;;;;;21.38;6.18;;;;;;;6.41;100.00;100819.25;10282208;28;20060;-72
2024/03/23 00:17:33;;;;;;;22.00;5.07;;;;;;;6.44;100.00;100824.91;10278835;28;20431;-73
2024/03/23 00:22:30;;;;;;;25.92;5.95;;;;;;;6.29;100.00;100801.44;10274293;28;20078;-73
2024/03/23 00:27:27;;;;;;;22.10;5.15;;;;;;;6.30;100.00;100796.81;10280372;28;20080;-73
2024/03/23 00:32:23;;;;;;;26.10;5.38;;;;;;;6.24;100.00;100787.09;10260682;28;20397;-73
2024/03/23 00:37:20;;;;;;;26.08;5.68;;;;;;;6.23;100.00;100785.50;10274568;28;20386;-73
2024/03/23 00:42:17;;;;;;;29.83;5.80;;;;;;;6.23;100.00;100771.91;10274626;28;20037;-72
2024/03/23 00:47:14;;;;;;;25.73;5.63;;;;;;;6.21;100.00;100755.09;10269164;28;20047;-72
2024/03/23 00:52:10;;;;;;;31.90;6.28;;;;;;;6.20;100.00;100757.00;10279351;28;20072;-73
2024/03/23 00:57:05;;;;;;;26.38;5.90;;;;;;;6.05;100.00;100752.53;10276070;28;20080;-73
2024/03/23 01:02:01;;;;;;;30.35;6.65;;;;;;;5.99;100.00;100740.13;10257066;28;20140;-72
2024/03/23 01:06:56;;;;;;;29.13;5.32;;;;;;;6.00;100.00;100736.28;10266696;28;20045;-73
2024/03/23 01:11:52;;;;;;;23.52;5.45;;;;;;;5.97;100.00;100726.03;10269755;28;20040;-72
2024/03/23 01:16:48;;;;;;;29.70;5.93;;;;;;;5.94;100.00;100723.91;10272240;28;20048;-73
2024/03/23 01:21:43;;;;;;;29.90;7.07;;;;;;;5.95;100.00;100725.50;10282324;28;20045;-74
2024/03/23 01:26:39;;;;;;;25.75;5.82;;;;;;;5.94;100.00;100707.63;10264747;28;20045;-73
2024/03/23 01:31:35;;;;;;;21.15;5.68;;;;;;;5.90;100.00;100706.53;10262481;28;20033;-72
2024/03/23 01:36:30;;;;;;;25.10;5.53;;;;;;;5.96;100.00;100699.97;10259230;28;20066;-74
2024/03/23 01:41:26;;;;;;;30.02;5.72;;;;;;;5.89;100.00;100694.03;10264569;28;20044;-74
2024/03/23 01:46:22;;;;;;;29.92;6.63;;;;;;;5.89;100.00;100691.31;10258037;28;20039;-73
2024/03/23 01:51:18;;;;;;;24.70;5.75;;;;;;;5.85;100.00;100682.16;10273220;28;20055;-72
2024/03/23 01:56:13;;;;;;;19.05;5.30;;;;;;;5.81;100.00;100670.25;10257406;28;20037;-73
2024/03/23 02:01:09;;;;;;;24.23;6.07;;;;;;;5.79;100.00;100658.88;10269767;28;22250;-72
2024/03/23 02:06:07;;;;;;;20.35;5.90;;;;;;;5.80;100.00;100655.06;10265213;28;20615;-73
2024/03/23 02:11:03;;;;;;;27.23;5.55;;;;;;;5.73;100.00;100651.88;10263985;28;20053;-74
2024/03/23 02:15:58;;;;;;;26.08;6.63;;;;;;;5.69;100.00;100641.59;10261820;28;20045;-74
2024/03/23 02:20:54;;;;;;;17.90;5.82;;;;;;;5.69;100.00;100633.47;10279471;28;20060;-73
2024/03/23 02:25:49;;;;;;;17.67;4.93;;;;;;;5.69;100.00;100625.34;10261813;28;20045;-73
2024/03/23 02:30:45;;;;;;;25.27;5.68;;;;;;;5.57;100.00;100622.22;10258592;28;20040;-74
2024/03/23 02:35:41;;;;;;;29.52;6.15;;;;;;;5.56;100.00;100614.34;10260181;28;20046;-73
2024/03/23 02:40:39;;;;;;;26.98;5.55;;;;;;;5.49;100.00;100606.53;10272140;28;20044;-73
2024/03/23 02:45:35;;;;;;;25.85;5.63;;;;;;;5.50;100.00;100600.03;10275730;28;20520;-73
2024/03/23 02:50:30;;;;;;;24.63;6.70;;;;;;;5.49;100.00;100593.00;10277921;28;20127;-73
2024/03/23 02:55:26;;;;;;;18.15;4.97;;;;;;;5.51;100.00;100600.84;10284394;28;20044;-72
2024/03/23 03:00:21;;;;;;;31.52;6.47;;;;;;;5.47;100.00;100595.16;10274084;28;20509;-75
2024/03/23 03:05:17;;;;;;;28.80;6.07;;;;;;;5.49;100.00;100593.78;10266260;28;20558;-71
2024/03/23 03:10:12;;;;;;;28.67;7.32;;;;;;;5.45;100.00;100586.50;10279156;28;20041;-72
2024/03/23 03:15:09;;;;;;;22.48;5.68;;;;;;;5.41;100.00;100569.22;10271620;28;20152;-73
2024/03/23 03:20:05;;;;;;;24.70;5.53;;;;;;;5.38;100.00;100559.72;10278080;28;20060;-74
2024/03/23 03:25:02;;;;;;;24.15;5.70;;;;;;;5.45;100.00;100553.97;10269063;28;20520;-72
2024/03/23 03:29:57;;;;;;;28.02;5.18;;;;;;;5.46;100.00;100550.19;10270238;28;20434;-71
2024/03/23 03:34:53;;;;;;;15.75;4.90;;;;;;;5.44;100.00;100550.47;10257431;28;20041;-73
2024/03/23 03:39:49;;;;;;;25.08;5.25;;;;;;;5.35;100.00;100543.25;10270205;28;20037;-73
2024/03/23 03:44:44;;;;;;;17.38;4.93;;;;;;;5.35;100.00;100533.19;10271103;28;20043;-72
2024/03/23 03:49:40;;;;;;;12.32;4.38;;;;;;;5.39;100.00;100528.03;10259121;28;20236;-73
2024/03/23 03:54:35;;;;;;;25.55;5.95;;;;;;;5.36;100.00;100523.16;10253919;28;20048;-73
2024/03/23 03:59:31;;;;;;;21.55;5.40;;;;;;;5.33;100.00;100512.91;10257720;28;20041;-72
2024/03/23 04:04:26;;;;;;;32.15;6.18;;;;;;;5.30;100.00;100508.84;10264965;28;20037;-73
2024/03/23 04:09:22;;;;;;;22.98;5.40;;;;;;;5.31;100.00;100504.25;10272252;28;20071;-73
2024/03/23 04:14:17;;;;;;;21.15;5.57;;;;;;;5.31;100.00;100504.25;10269607;28;20423;-73
2024/03/23 04:19:13;;;;;;;24.95;5.72;;;;;;;5.27;100.00;100504.81;10275792;28;21447;-72
2024/03/23 04:24:09;;;;;;;29.90;5.55;;;;;;;5.33;100.00;100496.63;10264363;28;20035;-72
2024/03/23 04:29:05;;;;;;;22.35;5.95;;;;;;;5.30;100.00;100486.38;10262937;28;20037;-73
2024/03/23 04:34:01;;;;;;;20.90;5.57;;;;;;;5.26;100.00;100481.50;10250391;28;20144;-73
2024/03/23 04:38:58;;;;;;;18.42;5.13;;;;;;;5.21;100.00;100497.84;10227458;28;20529;-73
2024/03/23 04:43:54;;;;;;;21.38;5.55;;;;;;;5.20;100.00;100509.78;10267575;28;20756;-74
2024/03/23 04:48:50;;;;;;;22.45;5.10;;;;;;;5.15;100.00;100511.72;10251953;28;20046;-72
2024/03/23 04:53:46;;;;;;;22.35;6.32;;;;;;;5.16;100.00;100524.19;10269749;28;20048;-73
2024/03/23 04:58:41;;;;;;;19.83;5.22;;;;;;;5.10;100.00;100514.47;10253150;28;20055;-73
2024/03/23 05:03:37;;;;;;;15.57;4.95;;;;;;;5.13;100.00;100484.91;10266311;28;20112;-72
2024/03/23 05:08:32;;;;;;;21.50;5.00;;;;;;;5.12;100.00;100477.06;10246209;28;20120;-73
2024/03/23 05:13:28;;;;;;;19.58;5.18;;;;;;;5.14;100.00;100488.44;10263712;28;20132;-72
2024/03/23 05:18:26;;;;;;;29.42;6.40;;;;;;;5.10;100.00;100487.38;10254074;28;20041;-73
2024/03/23 05:23:22;;;;;;;14.43;4.97;;;;;;;5.13;100.00;100476.78;10257437;28;20615;-72
2024/03/23 05:28:18;;;;;;;24.77;5.13;;;;;;;5.15;100.00;100490.88;10267309;28;20033;-72
2024/03/23 05:33:13;;;;;;;21.77;6.03;;;;;;;5.14;100.00;100481.09;10270748;28;20037;-72
2024/03/23 05:38:09;;;;;;;22.45;5.50;;;;;;;5.11;100.00;100484.41;10262379;28;20045;-72
2024/03/23 05:43:04;;;;;;;19.60;5.35;;;;;;;5.08;100.00;100484.94;10258745;28;20091;-73
2024/03/23 05:48:00;;;;;;;26.20;5.60;;;;;;;5.12;100.00;100477.88;10256126;28;20529;-73
2024/03/23 05:52:57;;;;;;;28.30;6.78;;;;;;;5.15;100.00;100461.06;10260089;28;20045;-73
2024/03/23 05:57:53;;;;;;;30.20;6.03;;;;;;;5.12;100.00;100447.25;10268940;28;20524;-73
2024/03/23 06:02:48;;;;;;;21.90;5.20;;;;;;;5.12;100.00;100452.69;10271314;28;20545;-73
2024/03/23 06:07:44;;;;;;;23.55;5.63;;;;;;;5.17;100.00;100461.53;10270748;28;20516;-74
2024/03/23 06:12:39;;;;;;;18.98;5.75;;;;;;;5.22;100.00;100453.38;10275502;28;20041;-75
2024/03/23 06:17:35;;;;;;;27.45;7.75;;;;;;;5.26;100.00;100459.03;10260243;28;20040;-75
2024/03/23 06:22:31;;;;;;;19.55;5.28;;;;;;;5.31;100.00;100460.88;10253685;28;20150;-74
2024/03/23 06:27:26;;;;;;;18.23;5.95;;;;;;;5.33;100.00;100464.09;10261476;28;20033;-73
2024/03/23 06:32:22;;;;;;;25.08;5.63;;;;;;;5.34;100.00;100460.28;10265977;28;20045;-72
2024/03/23 06:37:17;;;;;;;20.58;5.82;;;;;;;5.40;100.00;100457.22;10255831;28;20045;-72
2024/03/23 06:42:13;;;;;;;21.48;5.93;;;;;;;5.50;100.00;100459.03;10263312;28;20041;-73
2024/03/23 06:47:08;;;;;;;21.20;5.75;;;;;;;5.47;100.00;100465.81;10276711;28;20071;-72
2024/03/23 06:52:04;;;;;;;24.17;6.03;;;;;;;5.47;100.00;100454.16;10273719;28;20048;-73
2024/03/23 06:57:00;;;;;;;23.73;5.38;;;;;;;5.42;100.00;100456.94;10268853;28;20048;-73
2024/03/23 07:01:55;;;;;;;19.08;6.10;;;;;;;5.37;100.00;100452.38;10264427;28;20053;-73
2024/03/23 07:06:51;;;;;;;21.52;6.43;;;;;;;5.24;100.00;100445.78;10263550;28;20108;-72
2024/03/23 07:11:47;;;;;;;30.48;6.55;;;;;;;5.23;100.00;100460.41;10264555;28;20107;-72
2024/03/23 07:16:43;;;;;;;20.90;5.97;;;;;;;5.21;100.00;100457.16;10267096;28;20093;-73
2024/03/23 07:21:38;;;;;;;19.88;5.72;;;;;;;5.26;100.00;100456.31;10261986;28;20045;-73
2024/03/23 07:26:34;;;;;;;13.30;5.75;;;;;;;5.28;100.00;100457.63;10268634;28;20136;-73
2024/03/23 07:31:29;;;;;;;23.10;5.97;;;;;;;5.43;100.00;100458.53;10279646;28;20045;-72
2024/03/23 07:36:25;;;;;;;18.05;5.97;;;;;;;5.62;100.00;100462.13;10274391;28;20044;-73
2024/03/23 07:41:21;;;;;;;15.30;5.30;;;;;;;5.75;100.00;100459.78;10273241;28;20037;-73
2024/03/23 07:46:17;;;;;;;14.30;5.30;;;;;;;5.83;100.00;100461.84;10262405;28;20041;-73
2024/03/23 07:51:23;;;;;;;21.20;5.20;;;;;;;5.81;100.00;100458.63;10271626;28;20045;-72
2024/03/23 07:56:22;;;;;;;29.63;6.80;;;;;;;5.74;100.00;100455.47;10270769;28;20052;-72
2024/03/23 08:01:18;;;;;;;21.40;6.45;;;;;;;5.77;100.00;100457.59;10275370;28;20041;-76
2024/03/23 08:06:15;;;;;;;17.08;6.07;;;;;;;5.89;100.00;100449.81;10262509;28;20424;-76
2024/03/23 08:11:11;;;;;;;14.35;5.53;;;;;;;5.97;100.00;100441.06;10265905;28;20076;-76
2024/03/23 08:16:08;;;;;;;25.80;6.50;;;;;;;6.06;100.00;100447.44;10267118;28;20060;-76
2024/03/23 08:21:05;;;;;;;17.48;6.60;;;;;;;6.14;100.00;100445.16;10268659;28;20045;-76
2024/03/23 08:26:02;;;;;;;25.33;6.97;;;;;;;6.36;100.00;100441.81;10268818;28;20044;-76
2024/03/23 08:31:03;;;;;;;17.33;6.07;;;;;;;6.53;100.00;100437.47;10275630;28;20435;-75
2024/03/23 08:36:01;;;;;;;15.90;5.60;;;;;;;6.70;100.00;100436.09;10262585;28;20052;-75
2024/03/23 08:41:07;;;;;;;22.63;7.65;;;;;;;7.00;100.00;100417.63;10269924;28;20049;-76
2024/03/23 08:46:15;;;;;;;24.98;6.82;;;;;;;7.26;100.00;100416.00;10263161;28;20037;-75
2024/03/23 08:51:12;;;;;;;19.67;7.32;;;;;;;7.67;100.00;100407.00;10268252;28;20044;-76
2024/03/23 08:56:09;;;;;;;16.17;7.40;;;;;;;7.72;100.00;100401.44;10266366;28;20084;-76
2024/03/23 09:01:10;;;;;;;22.20;7.65;;;;;;;7.55;100.00;100396.66;10261605;28;20575;-72
2024/03/23 09:06:08;;;;;;;20.13;8.32;;;;;;;8.10;100.00;100390.25;10268657;28;20119;-73
2024/03/23 09:11:08;;;;;;;17.48;7.25;;;;;;;8.02;100.00;100396.41;10261453;28;20076;-73
2024/03/23 09:16:05;;;;;;;15.60;6.60;;;;;;;8.26;100.00;100378.97;10260445;28;20037;-72
2024/03/23 09:21:01;;;;;;;15.00;7.03;;;;;;;8.70;100.00;100377.31;10243601;28;20472;-72
2024/03/23 09:25:56;;;;;;;15.77;7.38;;;;;;;8.67;100.00;100375.22;10250893;28;20053;-71
2024/03/23 09:30:52;;;;;;;11.63;7.50;;;;;;;8.70;100.00;100366.41;10254092;28;20061;-71
2024/03/23 09:35:47;;;;;;;16.58;8.13;;;;;;;8.40;100.00;100387.88;10249291;28;20052;-71
2024/03/23 09:40:43;;;;;;;17.13;7.55;;;;;;;8.09;100.00;100372.28;10255489;28;20056;-71
2024/03/23 09:45:40;;;;;;;14.32;8.30;;;;;;;8.39;100.00;100372.63;10251535;28;20083;-71
2024/03/23 09:50:40;;;;;;;14.82;7.68;;;;;;;8.13;100.00;100365.09;10254010;28;20068;-71
2024/03/23 09:55:36;;;;;;;14.55;7.43;;;;;;;8.17;100.00;100355.22;10264231;28;20072;-71
2024/03/23 10:00:32;;;;;;;14.68;7.35;;;;;;;8.91;100.00;100348.41;10258467;28;20037;-71
2024/03/23 10:05:29;;;;;;;14.85;7.85;;;;;;;8.43;100.00;100351.88;10274392;28;20041;-71
2024/03/23 10:10:25;;;;;;;15.85;7.43;;;;;;;7.77;100.00;100355.09;10269160;28;20069;-70
2024/03/23 10:15:23;;;;;;;10.38;7.03;;;;;;;7.58;100.00;100362.56;10257569;28;20926;-70
2024/03/23 10:20:22;;;;;;;11.90;7.05;;;;;;;7.99;100.00;100353.47;10271618;28;20087;-71
2024/03/23 10:25:22;;;;;;;15.45;6.85;;;;;;;8.74;100.00;100343.66;10273886;28;20572;-71
2024/03/23 10:30:19;;;;;;;11.20;7.32;;;;;;;8.99;100.00;100339.44;10256251;28;20468;-71
2024/03/23 10:35:15;;;;;;;14.50;7.65;;;;;;;8.50;100.00;100327.69;10255348;28;20129;-71
2024/03/23 10:40:12;;;;;;;12.32;8.45;;;;;;;8.18;100.00;100332.28;10252862;28;20131;-72
2024/03/23 10:45:08;;;;;;;15.80;7.25;;;;;;;8.03;100.00;100335.41;10258128;28;20547;-71
2024/03/23 10:50:07;;;;;;;10.80;7.03;;;;;;;7.88;100.00;100338.50;10265267;28;20072;-71
2024/03/23 10:55:06;;;;;;;13.38;6.93;;;;;;;8.40;100.00;100330.69;10265919;28;20091;-71
2024/03/23 11:00:04;;;;;;;16.80;8.10;;;;;;;8.25;100.00;100325.63;10259105;28;20138;-72
2024/03/23 11:05:00;;;;;;;14.15;7.00;;;;;;;7.88;100.00;100316.72;10271550;28;20044;-72
2024/03/23 11:09:56;;;;;;;13.90;6.80;;;;;;;8.50;100.00;100316.81;10262448;28;20079;-72
2024/03/23 11:15:04;;;;;;;12.98;8.02;;;;;;;9.55;100.00;100297.97;10269464;28;20087;-72
2024/03/23 11:20:09;;;;;;;8.40;6.47;;;;;;;10.24;100.00;100286.94;10266501;28;20473;-72
2024/03/23 11:25:24;;;;;;;14.23;6.43;;;;;;;10.64;100.00;100297.59;10258240;28;20437;-71
2024/03/23 11:30:24;;;;;;;11.77;6.13;;;;;;;11.07;100.00;100299.31;10265613;28;20080;-72
2024/03/23 11:35:33;;;;;;;8.80;6.53;;;;;;;10.21;100.00;100290.34;10263507;28;20669;-71
2024/03/23 11:40:29;;;;;;;10.10;5.78;;;;;;;10.57;100.00;100300.03;10264695;28;20135;-72
2024/03/23 11:45:25;;;;;;;11.30;5.55;;;;;;;11.16;100.00;100275.44;10251091;28;20523;-71
2024/03/23 11:50:20;;;;;;;9.52;6.07;;;;;;;11.76;100.00;100269.78;10272444;28;20053;-73
2024/03/23 11:55:16;;;;;;;7.45;5.32;;;;;;;12.21;100.00;100272.59;10271433;28;20055;-72
2024/03/23 12:00:21;;;;;;;8.75;5.88;;;;;;;10.71;100.00;100281.47;10274119;28;20542;-72
2024/03/23 12:05:17;;;;;;;9.18;6.35;;;;;;;9.95;100.00;100312.22;10266927;28;20099;-72
2024/03/23 12:10:14;;;;;;;7.05;4.93;;;;;;;7.94;100.00;100353.59;10272192;28;20076;-71
2024/03/23 12:15:12;;;;;;;5.50;4.35;;;;;;;5.55;100.00;100364.03;10272234;28;20064;-70
2024/03/23 12:20:08;;;;;;;5.13;4.20;;;;;;;5.77;100.00;100343.66;10269643;28;20049;-70
2024/03/23 12:25:03;;;;;;;4.63;4.18;;;;;;;6.53;100.00;100334.25;10251951;28;20416;-71
2024/03/23 12:30:00;;;;;;;7.88;5.07;;;;;;;6.12;100.00;100317.88;10250664;28;20144;-70
2024/03/23 12:34:55;;;;;;;6.75;4.57;;;;;;;8.02;100.00;100304.63;10256480;28;20071;-70
2024/03/23 12:39:51;;;;;;;8.60;4.63;;;;;;;8.12;100.00;100322.66;10260681;28;20041;-71
2024/03/23 12:44:47;;;;;;;7.10;4.82;;;;;;;7.14;100.00;100355.91;10268810;28;20049;-71
2024/03/23 12:49:42;;;;;;;5.20;4.50;;;;;;;4.52;100.00;100386.09;10264935;28;20511;-71
2024/03/23 12:54:38;;;;;;;3.83;3.47;;;;;;;4.55;100.00;100403.66;10260387;28;20527;-71
2024/03/23 12:59:35;;;;;;;3.22;2.60;;;;;;;4.41;100.00;100390.81;10241544;28;20532;-71
2024/03/23 13:04:31;;;;;;;4.47;2.90;;;;;;;4.44;100.00;100386.72;10270131;28;20755;-71
2024/03/23 13:09:27;;;;;;;5.82;3.55;;;;;;;4.54;100.00;100383.91;10265529;28;20071;-71
2024/03/23 13:14:23;;;;;;;3.50;2.90;;;;;;;4.90;100.00;100377.31;10261812;28;20423;-71
2024/03/23 13:19:19;;;;;;;4.53;3.17;;;;;;;5.42;100.00;100375.59;10249027;28;20468;-71
2024/03/23 13:24:15;;;;;;;4.35;3.50;;;;;;;5.41;100.00;100363.97;10246519;28;20044;-70
2024/03/23 13:29:11;;;;;;;5.00;3.85;;;;;;;5.40;100.00;100372.38;10263090;28;20053;-70
2024/03/23 13:34:06;;;;;;;5.60;4.32;;;;;;;5.49;100.00;100386.88;10253398;28;20086;-71
2024/03/23 13:39:10;;;;;;;6.65;3.67;;;;;;;5.49;100.00;100359.78;10256884;28;20044;-71
2024/03/23 13:44:07;;;;;;;5.00;3.45;;;;;;;8.56;100.00;100364.59;10264669;28;20079;-72
2024/03/23 13:49:03;;;;;;;7.93;3.72;;;;;;;9.57;100.00;100342.13;10245238;28;20076;-71
2024/03/23 13:54:01;;;;;;;6.72;4.72;;;;;;;9.71;100.00;100342.75;10256250;28;20045;-70
2024/03/23 13:58:57;;;;;;;6.72;4.45;;;;;;;9.74;100.00;100353.03;10259667;28;20034;-70
2024/03/23 14:03:55;;;;;;;5.50;4.35;;;;;;;9.17;100.00;100339.50;10242933;28;20131;-72
2024/03/23 14:08:50;;;;;;;7.30;4.45;;;;;;;8.23;100.00;100340.34;10254306;28;20072;-70
2024/03/23 14:13:46;;;;;;;4.85;4.20;;;;;;;9.21;100.00;100356.81;10259041;28;20672;-71
2024/03/23 14:18:42;;;;;;;5.50;4.25;;;;;;;10.69;100.00;100332.16;10249365;28;20045;-70
2024/03/23 14:23:37;;;;;;;4.70;3.83;;;;;;;11.72;100.00;100346.38;10242551;28;20045;-71
2024/03/23 14:28:33;;;;;;;6.07;4.63;;;;;;;12.08;100.00;100346.91;10256533;28;20084;-71
2024/03/23 14:33:29;;;;;;;5.13;4.00;;;;;;;12.17;100.00;100339.38;10251687;28;20147;-71
2024/03/23 14:38:25;;;;;;;5.47;4.00;;;;;;;10.95;100.00;100340.25;10256638;28;20040;-72
2024/03/23 14:43:21;;;;;;;4.60;3.80;;;;;;;10.98;100.00;100338.78;10258916;28;20645;-72
2024/03/23 14:48:16;;;;;;;7.88;4.28;;;;;;;11.77;100.00;100326.19;10259620;28;20927;-71
2024/03/23 14:53:14;;;;;;;5.32;4.03;;;;;;;10.83;100.00;100326.47;10260493;28;20067;-72
2024/03/23 14:58:10;;;;;;;8.15;4.38;;;;;;;9.51;100.00;100332.47;10257299;28;20141;-72
2024/03/23 15:03:06;;;;;;;9.88;5.70;;;;;;;9.51;100.00;100332.47;10270647;28;20111;-71
2024/03/23 15:08:02;;;;;;;6.65;4.80;;;;;;;6.88;100.00;100378.16;10261369;28;20723;-71
2024/03/23 15:12:58;;;;;;;5.15;4.32;;;;;;;6.56;100.00;100360.00;10263394;28;20586;-71
2024/03/23 15:17:53;;;;;;;7.38;4.38;;;;;;;6.11;100.00;100365.94;10265468;28;20196;-74
2024/03/23 15:22:49;;;;;;;6.20;4.40;;;;;;;6.00;100.00;100350.91;10266150;28;20056;-74
2024/03/23 15:27:44;;;;;;;5.15;3.95;;;;;;;7.28;100.00;100348.53;10264974;28;20136;-74
2024/03/23 15:32:40;;;;;;;4.30;3.60;;;;;;;8.27;100.00;100350.63;10260642;28;20075;-74
2024/03/23 15:37:36;;;;;;;5.53;3.80;;;;;;;8.82;100.00;100323.84;10249742;28;20406;-75
2024/03/23 15:42:31;;;;;;;4.22;3.83;;;;;;;8.83;100.00;100330.09;10262741;28;20452;-74
2024/03/23 15:47:27;;;;;;;5.88;4.18;;;;;;;8.26;100.00;100332.66;10255053;28;20552;-74
2024/03/23 15:52:22;;;;;;;5.50;4.88;;;;;;;7.92;100.00;100336.78;10261707;28;20564;-75
2024/03/23 15:57:18;;;;;;;4.30;3.90;;;;;;;7.46;100.00;100337.81;10275592;28;20113;-74
2024/03/23 16:02:14;;;;;;;4.43;3.70;;;;;;;7.56;100.00;100332.94;10259423;28;20041;-74
2024/03/23 16:07:10;;;;;;;9.80;4.50;;;;;;;7.14;100.00;100336.88;10267362;28;20068;-74
2024/03/23 16:12:05;;;;;;;8.40;4.35;;;;;;;7.15;100.00;100327.63;10266185;28;20395;-74
2024/03/23 16:17:01;;;;;;;6.63;4.63;;;;;;;7.09;100.00;100339.69;10274052;28;20494;-75
2024/03/23 16:21:57;;;;;;;7.60;4.70;;;;;;;6.91;100.00;100331.34;10258305;28;20048;-73
2024/03/23 16:26:52;;;;;;;5.35;4.30;;;;;;;6.64;100.00;100336.78;10277658;28;20127;-72
2024/03/23 16:31:48;;;;;;;7.07;4.53;;;;;;;6.50;100.00;100332.13;10255306;28;20046;-72
2024/03/23 16:36:43;;;;;;;8.80;4.50;;;;;;;6.38;100.00;100342.66;10270400;28;20040;-72
2024/03/23 16:41:39;;;;;;;5.90;4.25;;;;;;;6.41;100.00;100346.72;10276030;28;20041;-71
2024/03/23 16:46:35;;;;;;;6.70;3.78;;;;;;;6.46;100.00;100355.56;10250788;28;20044;-71
2024/03/23 16:51:30;;;;;;;5.30;4.10;;;;;;;6.66;100.00;100339.97;10266156;28;20509;-72
2024/03/23 16:56:26;;;;;;;5.45;4.05;;;;;;;6.21;100.00;100342.44;10257330;28;20053;-72
2024/03/23 17:01:24;;;;;;;6.22;4.38;;;;;;;6.16;100.00;100339.81;10262586;28;20103;-72
2024/03/23 17:06:20;;;;;;;6.45;4.80;;;;;;;6.00;100.00;100339.25;10250807;28;20087;-72
2024/03/23 17:11:18;;;;;;;7.00;4.10;;;;;;;5.95;100.00;100328.47;10261424;28;20581;-71
2024/03/23 17:16:15;;;;;;;7.30;4.68;;;;;;;5.90;100.00;100323.91;10261230;28;20069;-72
2024/03/23 17:21:10;;;;;;;8.63;4.50;;;;;;;5.91;100.00;100312.75;10249785;28;20080;-72
2024/03/23 17:26:06;;;;;;;6.40;5.10;;;;;;;5.79;100.00;100312.41;10242516;28;20052;-72
2024/03/23 17:31:02;;;;;;;7.82;4.60;;;;;;;5.81;100.00;100314.84;10237386;28;20100;-72
2024/03/23 17:35:57;;;;;;;6.38;4.28;;;;;;;5.66;100.00;100311.25;10252783;28;20043;-72
2024/03/23 17:40:56;;;;;;;7.95;4.65;;;;;;;5.61;100.00;100324.88;10247539;28;20044;-73
2024/03/23 17:45:52;;;;;;;8.05;4.85;;;;;;;5.74;100.00;100317.13;10240803;28;20095;-72
2024/03/23 17:50:47;;;;;;;7.50;4.15;;;;;;;5.84;100.00;100311.50;10260939;28;20153;-73
2024/03/23 17:55:43;;;;;;;6.38;4.40;;;;;;;5.70;100.00;100306.84;10238806;28;20041;-75
2024/03/23 18:00:39;;;;;;;7.07;4.93;;;;;;;5.64;100.00;100308.03;10256192;28;20044;-73
2024/03/23 18:05:34;;;;;;;6.55;4.82;;;;;;;5.58;100.00;100309.19;10258932;28;20066;-73
2024/03/23 18:10:30;;;;;;;9.13;5.22;;;;;;;5.46;100.00;100306.13;10253301;28;20042;-73
2024/03/23 18:15:25;;;;;;;7.05;4.50;;;;;;;5.36;100.00;100315.22;10256548;28;20140;-74
2024/03/23 18:20:21;;;;;;;9.98;4.95;;;;;;;5.34;100.00;100322.00;10250386;28;20045;-72
2024/03/23 18:25:16;;;;;;;9.10;5.15;;;;;;;5.31;100.00;100314.47;10241852;28;20045;-73
2024/03/23 18:30:12;;;;;;;10.75;4.88;;;;;;;5.15;100.00;100312.00;10262999;28;20051;-73
2024/03/23 18:35:08;;;;;;;11.32;4.50;;;;;;;5.21;100.00;100321.66;10258680;28;20045;-73
2024/03/23 18:40:04;;;;;;;6.25;4.38;;;;;;;5.16;100.00;100321.72;10264068;28;20053;-72
2024/03/23 18:44:59;;;;;;;8.30;4.20;;;;;;;5.18;100.00;100316.81;10269563;28;20072;-73
2024/03/23 18:49:55;;;;;;;6.13;4.95;;;;;;;5.15;100.00;100320.13;10274960;28;20068;-73
2024/03/23 18:54:51;;;;;;;7.95;5.05;;;;;;;5.15;100.00;100317.41;10260437;28;20048;-73
2024/03/23 18:59:46;;;;;;;7.50;4.82;;;;;;;5.14;100.00;100315.78;10275098;28;20608;-72
2024/03/23 19:04:42;;;;;;;7.25;6.10;;;;;;;5.28;100.00;100308.53;10270937;28;20132;-73
2024/03/23 19:09:37;;;;;;;8.77;4.75;;;;;;;5.14;100.00;100310.34;10262724;28;20056;-73
2024/03/23 19:14:33;;;;;;;12.02;5.35;;;;;;;5.22;100.00;100312.44;10277405;28;20051;-73
2024/03/23 19:19:28;;;;;;;8.00;4.28;;;;;;;5.06;100.00;100313.72;10268234;28;20040;-73
2024/03/23 19:24:24;;;;;;;11.13;4.45;;;;;;;4.93;100.00;100325.28;10279968;28;20037;-73
2024/03/23 19:29:20;;;;;;;7.38;4.10;;;;;;;4.71;100.00;100323.06;10277750;28;20061;-73
2024/03/23 19:34:15;;;;;;;6.35;4.28;;;;;;;4.43;100.00;100318.25;10258664;28;20051;-73
2024/03/23 19:39:12;;;;;;;11.05;4.25;;;;;;;4.21;100.00;100321.41;10256007;28;20057;-72
2024/03/23 19:44:08;;;;;;;8.07;4.15;;;;;;;4.16;100.00;100328.78;10271712;28;20505;-72
2024/03/23 19:49:04;;;;;;;7.72;4.10;;;;;;;4.31;100.00;100315.09;10259244;28;20077;-72
2024/03/23 19:53:59;;;;;;;6.90;4.05;;;;;;;4.53;100.00;100332.75;10280504;28;20043;-72
2024/03/23 19:58:55;;;;;;;7.47;3.92;;;;;;;4.60;100.00;100333.22;10274729;28;20044;-72
2024/03/23 20:03:51;;;;;;;6.75;3.95;;;;;;;4.42;100.00;100322.03;10273825;28;20178;-71
2024/03/23 20:08:47;;;;;;;6.28;3.25;;;;;;;3.97;100.00;100320.56;10270860;28;20515;-71
2024/03/23 20:13:43;;;;;;;10.52;5.22;;;;;;;3.87;100.00;100321.44;10270362;28;20048;-72
2024/03/23 20:18:38;;;;;;;10.93;4.07;;;;;;;3.84;100.00;100286.84;10283533;28;20496;-71
2024/03/23 20:23:34;;;;;;;8.82;4.10;;;;;;;3.80;100.00;100299.31;10255374;28;21285;-71
2024/03/23 20:28:29;;;;;;;9.25;4.40;;;;;;;3.68;100.00;100288.84;10253930;28;20041;-72
2024/03/23 20:33:25;;;;;;;7.20;4.57;;;;;;;3.61;100.00;100279.47;10256391;28;20409;-72
2024/03/23 20:38:21;;;;;;;8.48;4.65;;;;;;;3.63;100.00;100271.88;10264746;28;20127;-72
2024/03/23 20:43:17;;;;;;;10.25;4.63;;;;;;;3.61;100.00;100268.66;10269081;28;20045;-71
2024/03/23 20:48:13;;;;;;;9.95;4.65;;;;;;;3.64;100.00;100268.06;10258026;28;20436;-72
2024/03/23 20:53:08;;;;;;;8.05;4.93;;;;;;;3.68;100.00;100252.91;10269915;28;20409;-72
2024/03/23 20:58:04;;;;;;;11.43;4.68;;;;;;;3.73;100.00;100242.84;10267044;28;20123;-72
2024/03/23 21:02:59;;;;;;;10.50;4.47;;;;;;;3.83;100.00;100250.09;10254558;28;20056;-73
2024/03/23 21:07:55;;;;;;;7.72;4.70;;;;;;;3.90;100.00;100238.91;10259033;28;20099;-73
2024/03/23 21:12:50;;;;;;;13.05;5.00;;;;;;;3.92;100.00;100232.16;10261519;28;20118;-73
2024/03/23 21:17:46;;;;;;;8.00;4.20;;;;;;;3.92;100.00;100229.44;10271161;28;20095;-73
2024/03/23 21:22:41;;;;;;;12.43;5.05;;;;;;;3.94;100.00;100224.53;10259114;28;20049;-73
2024/03/23 21:27:38;;;;;;;9.55;4.07;;;;;;;3.90;100.00;100228.91;10254211;28;20037;-71
2024/03/23 21:32:34;;;;;;;9.68;4.15;;;;;;;3.88;100.00;100224.88;10269018;28;20079;-72
2024/03/23 21:37:29;;;;;;;9.63;3.97;;;;;;;3.83;100.00;100222.22;10266474;28;20520;-72
2024/03/23 21:42:25;;;;;;;6.97;3.88;;;;;;;3.86;100.00;100217.06;10260995;28;20056;-71
2024/03/23 21:47:20;;;;;;;5.22;3.40;;;;;;;3.81;100.00;100217.09;10271895;28;20037;-71
2024/03/23 21:52:16;;;;;;;10.35;4.10;;;;;;;3.79;100.00;100211.16;10263877;28;20079;-71
2024/03/23 21:57:12;;;;;;;7.28;4.85;;;;;;;3.82;100.00;100209.78;10270051;28;20045;-72
2024/03/23 22:02:08;;;;;;;10.43;3.97;;;;;;;3.93;100.00;100217.53;10260181;28;20076;-72
2024/03/23 22:07:04;;;;;;;8.77;4.50;;;;;;;3.96;100.00;100208.81;10261951;28;20055;-72
2024/03/23 22:11:59;;;;;;;4.85;3.42;;;;;;;4.02;100.00;100198.78;10266663;28;20071;-72
2024/03/23 22:16:55;;;;;;;10.50;4.45;;;;;;;4.00;100.00;100200.97;10257097;28;20072;-72
2024/03/23 22:21:51;;;;;;;11.73;3.95;;;;;;;3.99;100.00;100189.34;10237241;28;20080;-74
2024/03/23 22:26:47;;;;;;;7.55;3.88;;;;;;;3.98;100.00;100195.03;10231646;28;20072;-74
2024/03/23 22:31:42;;;;;;;5.78;3.95;;;;;;;3.85;100.00;100182.16;10257078;28;20045;-72